Time;durP1;ratioP1;P1;durP2;ratioP2;P2;SDS_P1;SDS_P2;PMS_P1;PMS_P2;Temp;Humidity;BMP_temperature;BMP_pressure;BME280_temperature;BME280_humidity;BME280_pressure;Samples;Min_cycle;Max_cycle;Signal;HPM_P1;HPM_P2
2022/01/30 00:01:20;;;;;;;18.67;15.85;;;-4.20;99.20;-4.90;97028.00;;;;5059451;27;87423;-59
2022/01/30 00:03:46;;;;;;;19.23;16.77;;;-4.20;99.10;-4.90;97026.00;;;;5060883;27;87204;-59
2022/01/30 00:06:12;;;;;;;19.70;17.70;;;-4.20;99.10;-4.90;97011.00;;;;5062579;27;86320;-59
2022/01/30 00:08:39;;;;;;;19.50;17.25;;;-4.30;99.10;-4.90;97010.00;;;;5061862;27;88151;-59
2022/01/30 00:11:13;;;;;;;18.75;16.75;;;-4.30;99.10;-4.80;97013.00;;;;5061574;27;87119;-59
2022/01/30 00:13:39;;;;;;;19.83;17.25;;;-4.20;99.50;-4.80;97011.00;;;;5061596;27;88402;-59
2022/01/30 00:16:09;;;;;;;19.55;17.17;;;-4.20;99.10;-4.80;97013.00;;;;5061911;27;87297;-59
2022/01/30 00:23:55;;;;;;;18.83;16.63;;;-4.20;98.90;-4.80;96988.00;;;;5062872;27;87008;-60
2022/01/30 00:26:28;;;;;;;18.50;16.60;;;-4.20;99.00;-4.90;96988.00;;;;5061683;27;86952;-58
2022/01/30 00:28:54;;;;;;;18.98;16.75;;;-4.20;98.90;-4.80;96980.00;;;;5062319;27;87718;-60
2022/01/30 00:31:23;;;;;;;19.95;17.85;;;-4.20;98.90;-4.90;96980.00;;;;5061852;27;87741;-59
2022/01/30 00:33:49;;;;;;;20.48;17.58;;;-4.20;99.00;-4.80;96969.00;;;;5061850;27;87379;-58
2022/01/30 00:36:18;;;;;;;19.92;17.45;;;-4.20;98.90;-4.80;96968.00;;;;5061672;27;87464;-59
2022/01/30 00:38:44;;;;;;;17.45;15.57;;;-4.20;98.90;-4.80;96963.00;;;;5051809;27;89157;-59
2022/01/30 00:41:12;;;;;;;20.55;17.10;;;-4.20;98.90;-4.80;96968.00;;;;5061114;27;89174;-59
2022/01/30 00:43:38;;;;;;;19.25;16.13;;;-4.20;98.90;-4.80;96958.00;;;;5061545;27;87198;-60
2022/01/30 00:46:04;;;;;;;16.08;14.43;;;-4.10;98.80;-4.80;96950.00;;;;5060945;27;87623;-60
2022/01/30 00:48:30;;;;;;;16.23;14.52;;;-4.10;98.70;-4.80;96957.00;;;;5060673;27;87757;-58
2022/01/30 00:50:56;;;;;;;16.98;15.02;;;-4.10;98.70;-4.80;96935.00;;;;5058405;27;88173;-60
2022/01/30 00:53:22;;;;;;;16.73;14.98;;;-4.20;98.60;-4.70;96940.00;;;;5046818;27;87623;-59
2022/01/30 00:55:48;;;;;;;16.73;15.00;;;-4.10;98.60;-4.70;96927.00;;;;5062973;27;86262;-59
2022/01/30 00:58:15;;;;;;;16.70;14.90;;;-4.10;98.50;-4.70;96928.00;;;;5059913;27;87457;-59
2022/01/30 01:00:41;;;;;;;16.08;14.35;;;-4.10;98.50;-4.70;96915.00;;;;5061936;27;87314;-60
2022/01/30 01:03:07;;;;;;;14.82;13.32;;;-4.10;98.30;-4.70;96910.00;;;;5060878;27;88142;-59
2022/01/30 01:05:35;;;;;;;14.00;12.60;;;-4.10;98.20;-4.70;96914.00;;;;5059023;27;86946;-59
2022/01/30 01:08:11;;;;;;;11.95;10.70;;;-4.10;98.00;-4.70;96917.00;;;;5058239;27;89266;-60
2022/01/30 01:23:49;;;;;;;8.50;6.57;;;-4.10;96.60;-4.80;96875.00;;;;5052131;27;87183;-59
2022/01/30 01:26:17;;;;;;;7.38;6.57;;;-4.10;96.50;-4.80;96871.00;;;;5014444;27;87009;-60
2022/01/30 01:28:44;;;;;;;7.18;6.45;;;-4.10;96.40;-4.80;96871.00;;;;5061482;27;88982;-60
2022/01/30 01:31:11;;;;;;;7.78;6.82;;;-4.10;96.40;-4.80;96869.00;;;;5055211;27;88296;-60
2022/01/30 01:36:10;;;;;;;8.63;7.15;;;-4.10;96.40;-4.70;96868.00;;;;5061228;27;87321;-60
2022/01/30 01:38:36;;;;;;;7.75;6.60;;;-4.10;96.40;-4.70;96871.00;;;;5061988;27;87701;-60
2022/01/30 01:41:02;;;;;;;8.68;7.60;;;-4.10;96.30;-4.70;96868.00;;;;5061143;27;87407;-59
2022/01/30 01:43:30;;;;;;;7.80;7.00;;;-4.00;96.60;-4.70;96860.00;;;;5048906;27;87495;-59
2022/01/30 01:45:58;;;;;;;7.95;6.82;;;-4.00;96.40;-4.70;96867.00;;;;5060999;27;86873;-60
2022/01/30 01:48:24;;;;;;;8.90;7.38;;;-4.10;96.20;-4.70;96859.00;;;;5046322;27;87565;-59
2022/01/30 01:51:05;;;;;;;8.77;7.60;;;-4.10;96.20;-4.70;96868.00;;;;5044595;27;88236;-60
2022/01/30 01:53:33;;;;;;;8.88;7.97;;;-4.00;96.40;-4.70;96854.00;;;;5060865;27;88017;-59
2022/01/30 01:55:59;;;;;;;9.30;8.18;;;-4.10;96.40;-4.70;96860.00;;;;5050886;27;87749;-59
2022/01/30 01:58:28;;;;;;;9.40;8.18;;;-4.10;96.60;-4.80;96841.00;;;;5049327;27;88799;-60
2022/01/30 02:00:59;;;;;;;10.35;9.25;;;-4.10;96.70;-4.80;96842.00;;;;5060839;27;87312;-59
2022/01/30 02:03:27;;;;;;;12.35;9.55;;;-4.10;96.70;-4.80;96842.00;;;;5045972;27;87504;-60
2022/01/30 02:05:57;;;;;;;12.32;10.75;;;-4.20;96.70;-4.90;96839.00;;;;5031231;27;87915;-59
2022/01/30 02:08:40;;;;;;;9.32;8.43;;;-4.20;96.90;-4.90;96837.00;;;;5059142;27;87664;-59
2022/01/30 02:27:22;;;;;;;9.63;8.63;;;-4.30;97.10;-4.90;96800.00;;;;5061185;27;87060;-60
2022/01/30 02:29:49;;;;;;;9.65;8.60;;;-4.30;97.20;-4.90;96793.00;;;;5050821;27;88819;-60
2022/01/30 02:32:15;;;;;;;11.70;8.70;;;-4.30;97.20;-4.90;96785.00;;;;5051369;27;88069;-60
2022/01/30 02:34:41;;;;;;;9.88;8.70;;;-4.30;97.20;-5.00;96778.00;;;;5043503;27;87085;-59
2022/01/30 02:37:08;;;;;;;10.32;8.82;;;-4.30;97.30;-4.90;96780.00;;;;5047391;27;86335;-60
2022/01/30 02:39:34;;;;;;;9.55;8.43;;;-4.30;97.20;-4.90;96788.00;;;;5056911;27;88527;-59
2022/01/30 02:42:00;;;;;;;8.20;7.40;;;-4.30;97.30;-4.90;96759.00;;;;5050855;27;87654;-60
2022/01/30 02:44:38;;;;;;;7.45;6.65;;;-4.30;97.10;-4.90;96773.00;;;;5051107;27;88227;-59
2022/01/30 02:47:22;;;;;;;7.28;6.35;;;-4.30;97.10;-4.90;96767.00;;;;5050470;27;87157;-60
2022/01/30 02:52:38;;;;;;;8.43;6.75;;;-4.30;97.10;-4.90;96768.00;;;;5048158;27;88129;-59
2022/01/30 02:55:08;;;;;;;9.05;6.95;;;-4.30;97.00;-4.90;96749.00;;;;5050392;27;87219;-60
2022/01/30 02:57:34;;;;;;;7.32;6.55;;;-4.30;97.10;-4.90;96750.00;;;;5048186;27;87111;-60
2022/01/30 03:00:04;;;;;;;7.82;7.00;;;-4.30;97.10;-4.90;96751.00;;;;5051904;27;87919;-60
2022/01/30 03:02:30;;;;;;;8.98;7.43;;;-4.30;97.20;-4.90;96748.00;;;;5060524;27;86544;-59
2022/01/30 03:04:57;;;;;;;8.00;7.00;;;-4.30;97.30;-4.90;96733.00;;;;5060123;27;87059;-60
2022/01/30 03:07:23;;;;;;;9.57;7.07;;;-4.30;97.40;-4.90;96736.00;;;;5059435;27;87600;-60
2022/01/30 03:09:55;;;;;;;10.45;7.35;;;-4.30;97.30;-4.90;96750.00;;;;5049312;27;89637;-59
2022/01/30 03:12:22;;;;;;;7.30;6.07;;;-4.30;97.30;-4.90;96732.00;;;;5048492;27;89483;-60
2022/01/30 03:14:48;;;;;;;8.35;6.60;;;-4.30;97.40;-4.90;96741.00;;;;5046136;27;87058;-60
2022/01/30 03:17:14;;;;;;;7.43;5.80;;;-4.30;97.40;-4.90;96740.00;;;;5050529;27;87142;-60
2022/01/30 03:19:41;;;;;;;7.63;6.32;;;-4.30;97.40;-4.90;96742.00;;;;5059479;27;88047;-60
2022/01/30 03:22:08;;;;;;;7.50;6.70;;;-4.30;97.50;-4.90;96735.00;;;;5052057;27;88387;-60
2022/01/30 03:24:36;;;;;;;8.80;7.55;;;-4.30;97.40;-4.90;96726.00;;;;5049868;27;87039;-60
2022/01/30 03:27:14;;;;;;;7.97;6.78;;;-4.30;97.50;-4.90;96731.00;;;;5053304;27;86713;-60
2022/01/30 03:29:51;;;;;;;8.25;6.63;;;-4.30;97.50;-4.90;96726.00;;;;5054787;27;88730;-60
2022/01/30 03:32:37;;;;;;;7.20;6.15;;;-4.30;97.50;-4.90;96721.00;;;;5061453;27;88266;-60
2022/01/30 03:35:05;;;;;;;8.07;7.15;;;-4.30;97.50;-4.90;96709.00;;;;5051699;27;88812;-60
2022/01/30 03:37:31;;;;;;;7.47;6.68;;;-4.30;97.50;-4.90;96700.00;;;;5036411;27;87043;-60
2022/01/30 03:39:58;;;;;;;7.63;6.22;;;-4.30;97.60;-4.90;96703.00;;;;5037998;27;90591;-60
2022/01/30 03:42:24;;;;;;;5.53;4.85;;;-4.30;97.60;-4.90;96714.00;;;;5051996;27;88649;-59
2022/01/30 03:44:50;;;;;;;5.55;5.00;;;-4.30;97.70;-4.90;96709.00;;;;5053200;27;87055;-60
2022/01/30 03:47:16;;;;;;;6.10;5.38;;;-4.30;97.70;-4.90;96705.00;;;;5057411;27;87489;-60
2022/01/30 03:49:42;;;;;;;6.68;5.53;;;-4.30;97.60;-4.90;96707.00;;;;5052351;27;89216;-60
2022/01/30 03:52:09;;;;;;;7.70;6.05;;;-4.20;97.60;-4.80;96699.00;;;;5054047;27;88379;-60
2022/01/30 03:54:36;;;;;;;6.35;5.60;;;-4.20;97.50;-4.90;96692.00;;;;5054513;27;87329;-60
2022/01/30 03:57:05;;;;;;;7.00;5.75;;;-4.20;97.50;-4.90;96686.00;;;;5050962;27;87224;-60
2022/01/30 03:59:32;;;;;;;7.75;6.20;;;-4.20;97.60;-4.90;96671.00;;;;5049191;27;90471;-60
2022/01/30 04:01:59;;;;;;;7.45;6.07;;;-4.30;97.50;-4.90;96673.00;;;;5055725;27;88420;-57
2022/01/30 04:04:27;;;;;;;7.82;6.88;;;-4.30;97.70;-4.90;96677.00;;;;5049282;27;87330;-59
2022/01/30 04:06:57;;;;;;;7.10;6.40;;;-4.30;97.80;-4.90;96664.00;;;;5049759;27;87127;-60
2022/01/30 04:09:43;;;;;;;6.95;6.25;;;-4.30;97.80;-4.90;96676.00;;;;5061922;27;89388;-60
2022/01/30 04:12:18;;;;;;;7.45;6.25;;;-4.30;98.00;-4.90;96671.00;;;;5046421;27;87381;-60
2022/01/30 04:15:04;;;;;;;6.82;5.80;;;-4.30;98.10;-4.90;96660.00;;;;5050871;27;87142;-59
2022/01/30 04:17:50;;;;;;;6.10;5.45;;;-4.30;98.00;-4.90;96658.00;;;;5062955;27;86283;-60
2022/01/30 04:20:39;;;;;;;6.10;5.30;;;-4.30;97.90;-4.90;96651.00;;;;5051071;27;88767;-60
2022/01/30 04:23:27;;;;;;;10.07;6.70;;;-4.30;97.80;-4.90;96656.00;;;;5055559;27;87939;-60
2022/01/30 04:26:14;;;;;;;8.77;5.70;;;-4.30;97.70;-4.90;96651.00;;;;5031746;27;88295;-59
2022/01/30 04:28:58;;;;;;;5.97;5.38;;;-4.30;97.70;-4.90;96651.00;;;;5051261;27;87230;-60
2022/01/30 04:31:58;;;;;;;5.85;4.97;;;-4.30;97.60;-4.90;96653.00;;;;5035707;27;88565;-60
2022/01/30 04:34:55;;;;;;;6.43;5.03;;;-4.30;97.40;-4.90;96648.00;;;;5063028;27;88094;-60
2022/01/30 04:53:19;;;;;;;6.25;5.65;;;-4.20;97.70;-4.80;96613.00;;;;5037712;27;87116;-60
2022/01/30 05:05:06;;;;;;;5.10;4.60;;;-4.20;97.50;-4.80;96611.00;;;;5041443;27;87242;-60
2022/01/30 05:07:53;;;;;;;6.05;5.13;;;-4.20;97.50;-4.80;96607.00;;;;5059660;27;88012;-60
2022/01/30 05:10:37;;;;;;;5.68;4.70;;;-4.20;97.50;-4.80;96611.00;;;;5061348;27;87319;-60
2022/01/30 05:13:24;;;;;;;5.75;4.43;;;-4.20;97.50;-4.80;96617.00;;;;5049062;27;87026;-60
2022/01/30 05:16:11;;;;;;;6.03;4.95;;;-4.20;97.50;-4.80;96614.00;;;;5057873;27;86491;-60
2022/01/30 05:19:00;;;;;;;6.47;5.18;;;-4.20;97.40;-4.80;96598.00;;;;5050611;27;87780;-60
2022/01/30 05:21:37;;;;;;;6.38;4.68;;;-4.20;97.40;-4.80;96596.00;;;;5034196;27;89089;-59
2022/01/30 05:24:17;;;;;;;5.07;4.55;;;-4.20;97.40;-4.80;96621.00;;;;5043836;27;88626;-60
2022/01/30 05:26:51;;;;;;;8.25;4.57;;;-4.20;97.30;-4.80;96601.00;;;;5036254;27;87612;-60
2022/01/30 05:29:41;;;;;;;4.50;3.88;;;-4.10;97.30;-4.70;96602.00;;;;5009871;27;88028;-60
2022/01/30 05:32:23;;;;;;;4.10;3.70;;;-4.10;97.30;-4.70;96593.00;;;;5051386;27;88375;-60
2022/01/30 05:35:09;;;;;;;4.30;3.25;;;-4.10;97.20;-4.80;96589.00;;;;5061676;27;87467;-60
2022/01/30 05:37:55;;;;;;;5.07;3.25;;;-4.20;97.10;-4.80;96596.00;;;;5056888;27;87463;-60
2022/01/30 05:40:40;;;;;;;5.35;3.40;;;-4.20;97.10;-4.80;96587.00;;;;5060867;27;88363;-61
2022/01/30 05:43:40;;;;;;;3.67;3.22;;;-4.20;97.10;-4.80;96586.00;;;;5012671;27;89253;-59
2022/01/30 05:46:48;;;;;;;3.97;3.20;;;-4.20;97.20;-4.70;96590.00;;;;5050840;27;87614;-60
2022/01/30 05:49:31;;;;;;;3.03;2.72;;;-4.10;97.30;-4.80;96580.00;;;;5050252;27;87029;-60
2022/01/30 05:52:22;;;;;;;2.92;2.42;;;-4.20;97.20;-4.80;96577.00;;;;5034946;27;91735;-60
2022/01/30 05:55:08;;;;;;;3.05;2.47;;;-4.20;97.10;-4.80;96578.00;;;;5060451;27;88492;-60
2022/01/30 05:57:35;;;;;;;3.60;3.20;;;-4.20;97.20;-4.70;96590.00;;;;5061347;27;87631;-61
2022/01/30 06:00:06;;;;;;;3.35;2.75;;;-4.20;97.40;-4.70;96581.00;;;;5055024;27;87038;-59
2022/01/30 06:02:57;;;;;;;4.68;3.35;;;-4.10;97.30;-4.70;96575.00;;;;5049436;27;88581;-60
2022/01/30 06:05:24;;;;;;;3.35;2.80;;;-4.10;97.40;-4.70;96575.00;;;;5049646;27;88352;-60
2022/01/30 06:07:56;;;;;;;3.47;2.72;;;-4.10;97.30;-4.70;96572.00;;;;5030709;27;87028;-61
2022/01/30 06:10:27;;;;;;;5.25;3.20;;;-4.10;97.10;-4.70;96574.00;;;;5053712;27;86354;-60
2022/01/30 06:12:53;;;;;;;3.30;3.00;;;-4.10;97.20;-4.60;96562.00;;;;5044392;27;87680;-60
2022/01/30 06:15:20;;;;;;;3.47;2.30;;;-4.10;97.30;-4.70;96560.00;;;;5052454;27;89572;-60
2022/01/30 06:17:51;;;;;;;3.17;2.40;;;-4.10;97.00;-4.60;96557.00;;;;5058014;27;88061;-61
2022/01/30 06:20:35;;;;;;;2.03;1.83;;;-4.10;96.70;-4.70;96571.00;;;;5051998;27;87279;-61
2022/01/30 06:23:33;;;;;;;2.03;1.67;;;-4.10;96.70;-4.70;96568.00;;;;5059663;27;87601;-61
2022/01/30 06:26:18;;;;;;;2.03;1.83;;;-4.10;96.70;-4.60;96563.00;;;;5060941;27;87424;-61
2022/01/30 06:29:03;;;;;;;2.42;2.15;;;-4.10;96.60;-4.60;96557.00;;;;5061134;27;87009;-61
2022/01/30 06:31:55;;;;;;;2.70;2.10;;;-4.00;96.70;-4.60;96567.00;;;;5034562;27;87007;-60
2022/01/30 06:34:54;;;;;;;2.45;2.25;;;-4.00;96.70;-4.60;96568.00;;;;5025842;27;87702;-61
2022/01/30 06:37:35;;;;;;;4.18;2.10;;;-4.00;96.70;-4.60;96566.00;;;;5060413;27;87279;-61
2022/01/30 06:40:39;;;;;;;2.60;2.30;;;-4.00;97.10;-4.60;96564.00;;;;5041096;27;87101;-61
2022/01/30 06:43:24;;;;;;;2.60;2.40;;;-4.00;97.00;-4.60;96567.00;;;;5059756;27;87420;-61
2022/01/30 06:46:20;;;;;;;1.90;1.80;;;-4.00;96.70;-4.60;96567.00;;;;5002824;27;89149;-61
2022/01/30 06:49:21;;;;;;;2.75;1.90;;;-4.00;96.70;-4.60;96567.00;;;;5057482;27;89383;-60
2022/01/30 06:52:22;;;;;;;4.00;2.15;;;-4.00;96.60;-4.60;96554.00;;;;5046761;27;87085;-60
2022/01/30 06:55:11;;;;;;;2.83;2.20;;;-3.90;96.50;-4.60;96554.00;;;;5037166;27;87217;-60
2022/01/30 06:58:15;;;;;;;3.90;2.72;;;-4.00;96.30;-4.50;96564.00;;;;4992528;28;87686;-61
2022/01/30 07:01:00;;;;;;;2.28;2.00;;;-4.00;96.30;-4.50;96560.00;;;;5000556;28;87318;-61
2022/01/30 07:03:44;;;;;;;2.65;1.92;;;-3.90;96.30;-4.50;96549.00;;;;5039724;27;87322;-61
2022/01/30 07:06:49;;;;;;;6.28;2.53;;;-3.90;96.20;-4.50;96557.00;;;;5000698;28;86414;-61
2022/01/30 07:09:15;;;;;;;3.70;2.40;;;-3.90;96.30;-4.50;96555.00;;;;4991298;28;87780;-61
2022/01/30 07:11:41;;;;;;;3.40;2.40;;;-3.90;96.40;-4.40;96554.00;;;;5034171;27;87520;-61
2022/01/30 07:14:07;;;;;;;3.05;2.40;;;-3.90;96.50;-4.50;96553.00;;;;5063104;27;88208;-61
2022/01/30 07:16:33;;;;;;;3.35;2.42;;;-3.90;96.70;-4.50;96548.00;;;;5063398;27;87457;-61
2022/01/30 07:18:59;;;;;;;3.72;2.33;;;-3.90;96.70;-4.50;96540.00;;;;5057216;27;88930;-61
2022/01/30 07:21:25;;;;;;;3.17;2.40;;;-3.90;96.80;-4.50;96542.00;;;;5051635;27;88533;-61
2022/01/30 07:23:52;;;;;;;3.13;2.30;;;-3.90;96.80;-4.50;96546.00;;;;5063757;27;86933;-60
2022/01/30 07:26:18;;;;;;;2.30;2.03;;;-3.90;96.80;-4.50;96545.00;;;;5063570;27;86934;-61
2022/01/30 07:28:44;;;;;;;2.88;2.45;;;-3.90;96.80;-4.40;96535.00;;;;5063344;27;88192;-60
2022/01/30 07:31:10;;;;;;;3.42;2.50;;;-3.80;96.70;-4.40;96539.00;;;;5063246;27;87417;-60
2022/01/30 07:33:39;;;;;;;2.42;2.05;;;-3.90;96.60;-4.40;96538.00;;;;5063478;27;86974;-61
2022/01/30 07:36:07;;;;;;;3.35;2.30;;;-3.80;96.80;-4.40;96526.00;;;;5063267;27;87398;-61
2022/01/30 07:38:35;;;;;;;3.97;2.50;;;-3.80;96.60;-4.30;96534.00;;;;5053023;27;88659;-61
2022/01/30 07:41:02;;;;;;;3.00;2.20;;;-3.70;96.50;-4.20;96523.00;;;;5051589;27;88336;-61
2022/01/30 07:43:29;;;;;;;5.13;2.55;;;-3.60;96.30;-4.20;96531.00;;;;5062652;27;87498;-60
2022/01/30 07:46:04;;;;;;;3.35;2.20;;;-3.60;96.00;-4.20;96529.00;;;;5049317;27;87284;-61
2022/01/30 07:48:30;;;;;;;3.67;2.35;;;-3.60;95.80;-4.10;96525.00;;;;5044064;27;88644;-61
2022/01/30 07:50:56;;;;;;;4.13;2.55;;;-3.60;95.70;-4.10;96526.00;;;;5063407;27;87454;-61
2022/01/30 07:53:22;;;;;;;3.38;2.40;;;-3.50;95.40;-4.10;96513.00;;;;5062948;27;87289;-61
2022/01/30 07:55:48;;;;;;;2.00;1.80;;;-3.40;95.30;-4.10;96524.00;;;;5063219;27;86167;-60
2022/01/30 07:58:14;;;;;;;2.60;2.10;;;-3.50;94.90;-4.10;96512.00;;;;5062520;27;87979;-59
2022/01/30 08:00:41;;;;;;;3.05;2.17;;;-3.50;95.10;-4.00;96506.00;;;;5050902;27;87948;-61
2022/01/30 08:03:07;;;;;;;3.25;2.20;;;-3.40;94.70;-4.00;96508.00;;;;5059966;27;88454;-60
2022/01/30 08:05:33;;;;;;;2.83;2.05;;;-3.40;94.60;-3.90;96498.00;;;;5063467;27;87290;-62
2022/01/30 08:07:59;;;;;;;2.75;1.85;;;-3.40;94.60;-4.00;96505.00;;;;5062043;27;87647;-61
2022/01/30 08:10:25;;;;;;;2.65;2.10;;;-3.40;94.50;-3.90;96511.00;;;;5053673;27;87462;-60
2022/01/30 08:12:51;;;;;;;5.20;2.25;;;-3.30;94.60;-3.80;96506.00;;;;5049602;27;87046;-59
2022/01/30 08:15:17;;;;;;;2.22;1.42;;;-3.30;94.30;-3.80;96507.00;;;;5054499;27;87626;-60
2022/01/30 08:17:43;;;;;;;2.28;1.92;;;-3.30;94.00;-3.80;96514.00;;;;5058388;27;90002;-59
2022/01/30 08:20:10;;;;;;;3.20;2.00;;;-3.20;94.00;-3.80;96504.00;;;;5062492;27;87410;-61
2022/01/30 08:22:47;;;;;;;2.85;2.17;;;-3.30;93.80;-3.90;96513.00;;;;5060173;27;87370;-60
2022/01/30 08:25:14;;;;;;;5.72;3.72;;;-3.30;94.00;-3.90;96514.00;;;;5062649;27;87091;-60
2022/01/30 08:27:40;;;;;;;3.40;2.53;;;-3.30;94.10;-3.90;96508.00;;;;5061198;27;88878;-60
2022/01/30 08:30:07;;;;;;;3.17;2.47;;;-3.30;94.10;-3.90;96507.00;;;;5061412;27;88817;-60
2022/01/30 08:32:41;;;;;;;4.07;2.70;;;-3.30;94.30;-4.00;96505.00;;;;5057264;27;87491;-60
2022/01/30 08:35:10;;;;;;;5.32;2.58;;;-3.40;94.40;-3.90;96517.00;;;;5042205;28;87570;-60
2022/01/30 08:37:37;;;;;;;4.18;2.22;;;-3.30;94.70;-3.90;96498.00;;;;5058195;27;87658;-60
2022/01/30 08:40:16;;;;;;;5.22;2.78;;;-3.30;94.30;-3.90;96500.00;;;;5061441;27;87648;-60
2022/01/30 08:42:43;;;;;;;3.33;2.38;;;-3.40;94.50;-3.90;96502.00;;;;5046543;27;87160;-59
2022/01/30 08:45:12;;;;;;;3.30;2.30;;;-3.30;94.40;-3.80;96486.00;;;;5062549;27;86642;-59
2022/01/30 08:47:44;;;;;;;3.10;2.00;;;-3.30;94.40;-3.80;96487.00;;;;5061884;27;87550;-59
2022/01/30 08:50:12;;;;;;;4.03;2.28;;;-3.20;94.10;-3.70;96488.00;;;;5062157;27;87193;-59
2022/01/30 08:52:39;;;;;;;2.83;2.42;;;-3.20;94.00;-3.70;96472.00;;;;5061124;27;88101;-59
2022/01/30 08:55:07;;;;;;;2.90;2.13;;;-3.10;93.90;-3.60;96476.00;;;;5061833;27;87300;-60
2022/01/30 08:57:34;;;;;;;3.38;2.20;;;-3.10;93.90;-3.50;96466.00;;;;5061717;27;87817;-59
2022/01/30 09:00:01;;;;;;;4.07;2.50;;;-2.90;93.80;-3.50;96467.00;;;;5061832;27;87494;-60
2022/01/30 09:02:28;;;;;;;3.67;2.63;;;-2.90;93.30;-3.50;96465.00;;;;5061648;27;86903;-60
2022/01/30 09:04:54;;;;;;;2.58;2.25;;;-3.00;93.30;-3.50;96472.00;;;;5061964;27;86981;-60
2022/01/30 09:07:20;;;;;;;3.85;2.78;;;-2.90;93.20;-3.50;96458.00;;;;5053341;27;87692;-60
2022/01/30 09:09:47;;;;;;;4.22;2.55;;;-2.90;93.40;-3.40;96470.00;;;;5062360;27;87200;-60
2022/01/30 09:12:13;;;;;;;4.55;2.45;;;-2.80;93.40;-3.40;96475.00;;;;5061370;27;87878;-60
2022/01/30 09:14:41;;;;;;;2.90;2.45;;;-2.80;92.80;-3.30;96473.00;;;;5061037;27;87168;-60
2022/01/30 09:17:13;;;;;;;3.20;2.40;;;-2.70;93.20;-3.20;96469.00;;;;5028684;27;89714;-61
2022/01/30 09:19:44;;;;;;;;;;;-2.70;92.70;-3.20;96459.00;;;;5061002;27;88116;-58
2022/01/30 09:22:17;;;;;;;3.53;2.60;;;-2.60;92.70;-3.10;96449.00;;;;5062507;27;87458;-59
2022/01/30 09:24:45;;;;;;;4.07;2.53;;;-2.50;92.80;-2.80;96443.00;;;;5043770;27;87298;-61
2022/01/30 09:27:11;;;;;;;3.08;2.30;;;-2.20;92.50;-2.70;96433.00;;;;5051128;27;88261;-61
2022/01/30 09:29:39;;;;;;;4.25;2.22;;;-2.20;91.80;-2.70;96437.00;;;;5061730;27;87337;-61
2022/01/30 09:32:07;;;;;;;6.57;2.30;;;-2.20;91.80;-2.80;96432.00;;;;5051214;27;87651;-60
2022/01/30 09:34:34;;;;;;;3.28;2.40;;;-2.20;91.80;-2.80;96424.00;;;;5056478;27;86523;-61
2022/01/30 09:37:00;;;;;;;2.40;2.10;;;-2.30;91.60;-3.00;96414.00;;;;5061540;27;86974;-60
2022/01/30 09:39:28;;;;;;;3.15;2.47;;;-2.40;91.30;-3.00;96429.00;;;;5060546;27;88586;-60
2022/01/30 09:41:55;;;;;;;3.65;2.20;;;-2.40;91.40;-3.00;96413.00;;;;5060156;27;88054;-60
2022/01/30 09:44:22;;;;;;;3.30;2.50;;;-2.40;91.40;-3.00;96418.00;;;;5061156;27;86932;-60
2022/01/30 09:46:50;;;;;;;3.55;2.42;;;-2.40;91.60;-3.00;96424.00;;;;5061243;27;87696;-60
2022/01/30 09:49:22;;;;;;;2.92;2.10;;;-2.40;91.80;-3.00;96405.00;;;;5051604;27;88393;-60
2022/01/30 09:51:48;;;;;;;2.42;2.20;;;-2.40;91.50;-3.00;96415.00;;;;5016104;27;86974;-60
2022/01/30 09:54:14;;;;;;;4.25;2.20;;;-2.40;91.20;-2.90;96412.00;;;;5019657;28;87146;-60
2022/01/30 09:56:40;;;;;;;2.47;2.13;;;-2.40;91.30;-3.00;96433.00;;;;5058155;27;87505;-60
2022/01/30 09:59:07;;;;;;;3.35;2.55;;;-2.40;91.50;-2.90;96432.00;;;;5053880;27;87360;-60
2022/01/30 10:01:36;;;;;;;2.67;1.98;;;-2.40;91.80;-2.80;96425.00;;;;5061098;27;87051;-61
2022/01/30 10:04:04;;;;;;;3.13;2.25;;;-2.30;91.40;-2.70;96434.00;;;;5060103;27;87402;-61
2022/01/30 10:06:40;;;;;;;2.85;2.00;;;-2.20;91.80;-2.70;96429.00;;;;5059462;27;88681;-60
2022/01/30 10:09:26;;;;;;;3.20;2.30;;;-2.20;91.20;-2.70;96422.00;;;;5036418;27;88295;-61
2022/01/30 10:12:09;;;;;;;2.88;2.20;;;-2.20;91.10;-2.60;96407.00;;;;5060074;27;87195;-60
2022/01/30 10:14:50;;;;;;;2.28;2.00;;;-2.10;91.10;-2.60;96402.00;;;;5056360;27;88048;-62
2022/01/30 10:17:27;;;;;;;4.45;2.67;;;-2.00;91.10;-2.60;96408.00;;;;5057682;27;87499;-61
2022/01/30 10:20:11;;;;;;;4.03;2.33;;;-2.00;91.10;-2.60;96415.00;;;;5030939;27;87429;-60
2022/01/30 10:22:50;;;;;;;4.22;2.40;;;-2.00;90.90;-2.60;96396.00;;;;5050706;27;87044;-60
2022/01/30 10:25:26;;;;;;;2.30;2.10;;;-2.10;90.90;-2.60;96397.00;;;;5060925;27;86756;-60
2022/01/30 10:28:18;;;;;;;2.72;2.08;;;-2.10;90.80;-2.70;96393.00;;;;5059706;27;87481;-60
2022/01/30 10:30:54;;;;;;;4.85;2.92;;;-2.10;91.00;-2.70;96386.00;;;;5056200;27;87321;-61
2022/01/30 10:33:36;;;;;;;3.40;2.33;;;-2.10;91.20;-2.60;96390.00;;;;5066640;27;87907;-60
2022/01/30 10:36:03;;;;;;;4.25;2.42;;;-2.10;91.00;-2.60;96399.00;;;;5067119;27;87356;-61
2022/01/30 10:38:46;;;;;;;3.72;2.50;;;-2.00;91.30;-2.50;96386.00;;;;5065184;27;87659;-61
2022/01/30 10:41:21;;;;;;;3.42;2.30;;;-2.00;91.10;-2.40;96380.00;;;;5066602;27;87862;-61
2022/01/30 10:43:56;;;;;;;4.07;2.55;;;-1.90;90.70;-2.40;96378.00;;;;5066991;27;87394;-60
2022/01/30 10:46:43;;;;;;;3.30;2.35;;;-1.80;90.70;-2.40;96373.00;;;;5066671;27;87135;-61
2022/01/30 10:49:21;;;;;;;3.38;2.60;;;-1.90;90.40;-2.50;96377.00;;;;5064404;27;88441;-60
2022/01/30 10:51:57;;;;;;;6.07;2.97;;;-1.90;90.50;-2.40;96370.00;;;;5067775;27;87346;-59
2022/01/30 10:54:29;;;;;;;3.78;2.30;;;-1.90;90.80;-2.40;96369.00;;;;5060275;27;87574;-61
2022/01/30 10:57:05;;;;;;;3.22;2.28;;;-2.00;90.50;-2.50;96365.00;;;;5059005;27;87449;-61
2022/01/30 10:59:32;;;;;;;4.07;2.50;;;-2.00;90.70;-2.50;96362.00;;;;5073639;27;88599;-61
2022/01/30 11:02:10;;;;;;;3.45;2.38;;;-2.00;90.70;-2.60;96349.00;;;;5038485;27;88633;-61
2022/01/30 11:04:36;;;;;;;4.20;2.88;;;-2.00;90.80;-2.50;96352.00;;;;5059368;27;87301;-61
2022/01/30 11:07:05;;;;;;;3.83;2.17;;;-2.00;90.70;-2.50;96344.00;;;;5066511;27;86987;-61
2022/01/30 11:12:05;;;;;;;3.35;2.50;;;-2.20;90.90;-2.80;96349.00;;;;5066067;27;87266;-61
2022/01/30 11:14:39;;;;;;;3.72;2.65;;;-2.20;91.10;-2.80;96351.00;;;;5065984;27;87537;-60
2022/01/30 11:17:08;;;;;;;4.50;2.60;;;-2.20;91.30;-2.70;96347.00;;;;5054220;27;86724;-61
2022/01/30 11:19:43;;;;;;;3.28;2.50;;;-2.10;91.40;-2.70;96324.00;;;;5066294;27;87601;-60
2022/01/30 11:22:13;;;;;;;2.75;2.30;;;-2.10;91.40;-2.70;96327.00;;;;5064556;27;87241;-61
2022/01/30 11:24:54;;;;;;;2.80;2.40;;;-2.20;91.20;-2.80;96322.00;;;;5064399;27;87929;-60
2022/01/30 11:27:23;;;;;;;3.47;2.70;;;-2.20;91.50;-2.80;96334.00;;;;5054605;27;87633;-61
2022/01/30 11:29:51;;;;;;;3.67;2.50;;;-2.20;91.60;-2.90;96323.00;;;;5062368;27;88145;-60
2022/01/30 11:32:20;;;;;;;3.05;2.42;;;-2.30;91.60;-2.90;96324.00;;;;5065458;27;87455;-60
2022/01/30 11:34:46;;;;;;;2.92;2.15;;;-2.30;91.70;-2.90;96321.00;;;;5058569;27;87028;-59
2022/01/30 11:37:16;;;;;;;4.25;2.70;;;-2.30;91.60;-2.90;96307.00;;;;5066321;27;86992;-60
2022/01/30 11:39:51;;;;;;;4.22;2.42;;;-2.30;91.70;-2.80;96294.00;;;;5060646;27;86999;-61
2022/01/30 11:42:26;;;;;;;2.80;2.30;;;-2.20;91.70;-2.80;96299.00;;;;5062764;27;87552;-60
2022/01/30 11:45:04;;;;;;;4.13;2.97;;;-2.20;91.70;-2.80;96304.00;;;;5052814;27;87542;-60
2022/01/30 11:47:44;;;;;;;3.13;2.50;;;-2.20;91.80;-2.90;96298.00;;;;5063449;27;86864;-60
2022/01/30 11:50:11;;;;;;;5.75;3.33;;;-2.30;91.80;-2.80;96297.00;;;;5048579;27;89037;-60
2022/01/30 11:52:54;;;;;;;4.32;3.20;;;-2.30;91.90;-2.80;96293.00;;;;5062880;27;88217;-61
2022/01/30 11:55:48;;;;;;;4.78;3.15;;;-2.30;91.90;-2.70;96313.00;;;;5063211;27;87403;-61
2022/01/30 11:58:35;;;;;;;4.95;2.78;;;-2.20;92.00;-2.70;96306.00;;;;5062646;27;86954;-60
2022/01/30 12:01:12;;;;;;;4.78;2.88;;;-2.20;91.80;-2.70;96304.00;;;;5052471;27;87638;-60
2022/01/30 12:03:52;;;;;;;4.47;3.05;;;-2.20;91.80;-2.70;96299.00;;;;5061895;27;87452;-61
2022/01/30 12:06:21;;;;;;;2.85;2.55;;;-2.10;91.80;-2.70;96314.00;;;;5062797;27;87435;-60
2022/01/30 12:08:52;;;;;;;3.45;2.95;;;-2.20;91.60;-2.80;96306.00;;;;5063081;27;86311;-61
2022/01/30 12:11:37;;;;;;;4.22;3.15;;;-2.20;91.80;-2.80;96304.00;;;;5062008;27;87773;-61
2022/01/30 12:14:24;;;;;;;4.63;3.50;;;-2.20;91.80;-2.80;96288.00;;;;5061787;27;88515;-60
2022/01/30 12:17:02;;;;;;;4.45;3.08;;;-2.30;91.90;-2.90;96290.00;;;;5046592;27;88164;-61
2022/01/30 12:19:31;;;;;;;4.75;3.10;;;-2.30;91.80;-2.90;96290.00;;;;5063231;27;87390;-61
2022/01/30 12:22:25;;;;;;;3.97;3.20;;;-2.30;91.70;-2.90;96289.00;;;;5062167;27;87845;-61
2022/01/30 12:25:22;;;;;;;5.80;3.35;;;-2.30;91.80;-2.90;96314.00;;;;5062741;27;87358;-61
2022/01/30 12:27:54;;;;;;;4.13;3.47;;;-2.30;91.70;-2.90;96305.00;;;;5061628;27;86949;-61